createdAt,value
2023-02-19T00:00:33.888Z,101588.63
2023-02-19T00:03:36.698Z,101588.66
2023-02-19T00:06:38.171Z,101582.72
2023-02-19T00:09:39.616Z,101600.59
2023-02-19T00:12:41.058Z,101594.66
2023-02-19T00:15:42.446Z,101601.47
2023-02-19T00:18:44.633Z,101605.75
2023-02-19T00:21:46.487Z,101598.94
2023-02-19T00:24:49.336Z,101600.63
2023-02-19T00:27:50.814Z,101594.72
2023-02-19T00:30:52.272Z,101594.72
2023-02-19T00:33:56.641Z,101607.50
2023-02-19T00:36:58.136Z,101614.34
2023-02-19T00:39:59.745Z,101617.81
2023-02-19T00:43:01.470Z,101617.78
2023-02-19T00:46:03.004Z,101616.09
2023-02-19T00:49:06.484Z,101612.69
2023-02-19T00:52:07.905Z,101619.50
2023-02-19T00:55:09.353Z,101615.28
2023-02-19T00:58:10.802Z,101612.75
2023-02-19T01:01:12.679Z,101616.09
2023-02-19T01:04:14.210Z,101613.50
2023-02-19T01:07:15.708Z,101616.94
2023-02-19T01:10:19.120Z,101617.00
2023-02-19T01:13:20.610Z,101622.06
2023-02-19T01:16:22.857Z,101620.31
2023-02-19T01:19:25.515Z,101620.31
2023-02-19T01:22:27.029Z,101615.25
2023-02-19T01:25:28.509Z,101615.19
2023-02-19T01:28:29.910Z,101618.59
2023-02-19T01:31:31.721Z,101610.91
2023-02-19T01:34:33.210Z,101611.72
2023-02-19T01:37:34.673Z,101611.72
2023-02-19T01:40:36.459Z,101604.06
2023-02-19T01:44:13.495Z,101606.69
2023-02-19T01:47:17.370Z,101603.22
2023-02-19T01:50:18.883Z,101610.03
2023-02-19T01:53:24.597Z,101608.38
2023-02-19T01:56:27.346Z,101599.84
2023-02-19T01:59:28.834Z,101608.38
2023-02-19T02:02:30.330Z,101604.94
2023-02-19T02:05:49.602Z,101605.84
2023-02-19T02:08:53.159Z,101606.75
2023-02-19T02:11:55.557Z,101605.16
2023-02-19T02:14:57.249Z,101606.97
2023-02-19T02:18:47.861Z,101603.63
2023-02-19T02:21:58.302Z,101609.59
2023-02-19T02:25:23.955Z,101606.22
2023-02-19T02:28:44.095Z,101611.41
2023-02-19T02:31:54.071Z,101611.47
2023-02-19T02:35:08.075Z,101620.03
2023-02-19T02:38:11.538Z,101615.78
2023-02-19T02:41:15.258Z,101614.94
2023-02-19T02:44:17.052Z,101614.94
2023-02-19T02:47:18.520Z,101609.91
2023-02-19T02:50:25.671Z,101613.28
2023-02-19T02:53:57.528Z,101615.13
2023-02-19T02:57:00.353Z,101612.63
2023-02-19T03:00:04.984Z,101624.53
2023-02-19T03:03:06.901Z,101622.00
2023-02-19T03:06:12.377Z,101624.53
2023-02-19T03:09:31.931Z,101622.00
2023-02-19T03:12:37.197Z,101626.25
2023-02-19T03:15:47.120Z,101622.00
2023-02-19T03:18:53.784Z,101633.91
2023-02-19T03:22:06.752Z,101632.19
2023-02-19T03:25:12.563Z,101636.44
2023-02-19T03:28:17.611Z,101643.19
2023-02-19T03:31:24.423Z,101642.38
2023-02-19T03:34:31.341Z,101646.56
2023-02-19T03:37:44.020Z,101648.22
2023-02-19T03:41:09.586Z,101649.94
2023-02-19T03:44:33.407Z,101653.31
2023-02-19T03:48:16.580Z,101651.63
2023-02-19T03:51:18.732Z,101647.41
2023-02-19T03:54:27.502Z,101653.41
2023-02-19T03:57:45.267Z,101655.06
2023-02-19T04:00:55.119Z,101659.31
2023-02-19T04:04:25.985Z,101667.03
2023-02-19T04:07:33.043Z,101675.53
2023-02-19T04:10:36.228Z,101678.94
2023-02-19T04:13:41.804Z,101681.66
2023-02-19T04:16:49.806Z,101700.25
2023-02-19T04:19:53.202Z,101696.03
2023-02-19T04:22:54.831Z,101698.69
2023-02-19T04:26:00.055Z,101720.66
2023-02-19T04:29:02.041Z,101729.22
2023-02-19T04:32:03.830Z,101724.09
2023-02-19T04:35:05.710Z,101733.44
2023-02-19T04:38:07.317Z,101741.09
2023-02-19T04:41:09.948Z,101736.84
2023-02-19T04:44:11.704Z,101750.47
2023-02-19T04:47:13.143Z,101747.06
2023-02-19T04:50:14.717Z,101747.91
2023-02-19T04:53:16.140Z,101754.72
2023-02-19T04:56:18.207Z,101750.47
2023-02-19T04:59:19.670Z,101754.72
2023-02-19T05:02:21.117Z,101760.69
2023-02-19T05:05:22.566Z,101750.50
2023-02-19T05:08:23.972Z,101747.97
2023-02-19T05:11:25.455Z,101749.72
2023-02-19T05:14:26.880Z,101758.22
2023-02-19T05:17:28.315Z,101765.06
2023-02-19T05:20:30.046Z,101781.25
2023-02-19T05:23:31.533Z,101776.22
2023-02-19T05:26:33.006Z,101786.47
2023-02-19T05:29:34.483Z,101785.63
2023-02-19T05:32:35.903Z,101790.78
2023-02-19T05:35:45.213Z,101787.41
2023-02-19T05:38:47.212Z,101786.56
2023-02-19T05:41:48.621Z,101788.25
2023-02-19T05:44:50.020Z,101789.97
2023-02-19T05:47:51.472Z,101787.47
2023-02-19T05:50:52.885Z,101801.88
2023-02-19T05:53:55.859Z,101813.78
2023-02-19T05:56:57.641Z,101816.34
2023-02-19T05:59:59.098Z,101824.81
2023-02-19T06:03:01.019Z,101831.63
2023-02-19T06:06:03.694Z,101831.63
2023-02-19T06:09:06.148Z,101836.72
2023-02-19T06:12:07.820Z,101858.78
2023-02-19T06:15:09.387Z,101867.28
2023-02-19T06:18:10.774Z,101876.63
2023-02-19T06:21:12.906Z,101871.53
2023-02-19T06:24:14.659Z,101879.16
2023-02-19T06:27:16.389Z,101891.06
2023-02-19T06:30:18.059Z,101896.13
2023-02-19T06:33:19.519Z,101905.47
2023-02-19T06:36:21.456Z,101907.16
2023-02-19T06:39:22.881Z,101909.69
2023-02-19T06:42:24.313Z,101913.91
2023-02-19T06:45:25.725Z,101918.16
2023-02-19T06:48:28.439Z,101919.91
2023-02-19T06:51:29.913Z,101923.25
2023-02-19T06:54:31.372Z,101931.78
2023-02-19T06:57:32.786Z,101933.44
2023-02-19T07:00:34.566Z,101944.50
2023-02-19T07:03:35.988Z,101948.72
2023-02-19T07:06:37.590Z,101947.06
2023-02-19T07:09:39.019Z,101957.25
2023-02-19T07:12:40.404Z,101975.09
2023-02-19T07:15:41.908Z,101983.63
2023-02-19T07:18:43.331Z,101988.75
2023-02-19T07:21:44.756Z,101998.94
2023-02-19T07:24:47.852Z,102004.06
2023-02-19T07:27:49.435Z,102003.22
2023-02-19T07:30:50.979Z,102004.09
2023-02-19T07:33:52.533Z,102010.88
2023-02-19T07:36:53.937Z,102018.50
2023-02-19T07:39:55.344Z,102027.88
2023-02-19T07:42:59.222Z,102032.13
2023-02-19T07:46:19.245Z,102038.91
2023-02-19T07:49:20.687Z,102053.34
2023-02-19T07:52:22.144Z,102058.41
2023-02-19T07:55:23.555Z,102065.22
2023-02-19T07:58:25.036Z,102069.44
2023-02-19T08:01:26.498Z,102072.03
2023-02-19T08:04:27.904Z,102068.66
2023-02-19T08:07:33.680Z,102055.91
2023-02-19T08:10:35.502Z,102061.03
2023-02-19T08:13:36.898Z,102063.56
2023-02-19T08:16:43.264Z,102060.19
2023-02-19T08:19:45.471Z,102063.59
2023-02-19T08:22:47.021Z,102058.47
2023-02-19T08:25:50.238Z,102061.03
2023-02-19T08:28:51.638Z,102073.78
2023-02-19T08:31:53.090Z,102077.19
2023-02-19T08:34:54.550Z,102085.69
2023-02-19T08:37:57.532Z,102091.66
2023-02-19T08:40:58.918Z,102087.38
2023-02-19T08:44:00.323Z,102095.88
2023-02-19T08:47:01.769Z,102091.63
2023-02-19T08:50:03.763Z,102107.78
2023-02-19T08:53:06.539Z,102112.00
2023-02-19T08:56:13.096Z,102123.94
2023-02-19T08:59:14.562Z,102131.56
2023-02-19T09:02:16.199Z,102134.91
2023-02-19T09:05:17.843Z,102135.72
2023-02-19T09:08:19.305Z,102139.09
2023-02-19T09:11:20.734Z,102138.13
2023-02-19T09:14:22.158Z,102145.72
2023-02-19T09:17:23.619Z,102148.25
2023-02-19T09:20:25.041Z,102155.75
2023-02-19T09:23:26.474Z,102154.75
2023-02-19T09:26:27.923Z,102151.22
2023-02-19T09:29:32.124Z,102156.25
2023-02-19T09:32:33.665Z,102159.50
2023-02-19T09:35:39.294Z,102163.47
2023-02-19T09:38:40.962Z,102168.59
2023-02-19T09:42:24.026Z,102171.97
2023-02-19T09:45:26.662Z,102182.97
2023-02-19T09:48:28.609Z,102189.50
2023-02-19T09:51:32.201Z,102199.72
2023-02-19T09:54:36.324Z,102193.56
2023-02-19T09:57:37.894Z,102206.94
2023-02-19T10:00:39.546Z,102213.69
2023-02-19T10:03:45.081Z,102213.53
2023-02-19T10:06:47.429Z,102223.69
2023-02-19T10:09:54.857Z,102220.13
2023-02-19T10:13:11.076Z,102224.34
2023-02-19T10:16:17.452Z,102228.41
2023-02-19T10:19:19.163Z,102221.91
2023-02-19T10:22:20.958Z,102221.84
2023-02-19T10:25:22.500Z,102234.44
2023-02-19T10:28:28.686Z,102241.88
2023-02-19T10:31:31.817Z,102230.69
2023-02-19T10:34:33.264Z,102233.47
2023-02-19T10:37:35.472Z,102241.94
2023-02-19T10:40:44.924Z,102233.06
2023-02-19T10:44:11.600Z,102245.06
2023-02-19T10:47:19.328Z,102251.13
2023-02-19T10:50:31.668Z,102259.81
2023-02-19T10:53:47.781Z,102264.03
2023-02-19T10:56:50.328Z,102264.59
2023-02-19T10:59:54.584Z,102272.13
2023-02-19T11:03:20.263Z,102286.44
2023-02-19T11:06:26.385Z,102288.47
2023-02-19T11:09:44.069Z,102287.38
2023-02-19T11:12:51.424Z,102286.88
2023-02-19T11:15:55.088Z,102298.41
2023-02-19T11:18:57.141Z,102302.03
2023-02-19T11:22:00.438Z,102290.88
2023-02-19T11:25:13.924Z,102300.28
2023-02-19T11:28:27.518Z,102307.31
2023-02-19T11:31:30.181Z,102303.22
2023-02-19T11:34:31.629Z,102306.19
2023-02-19T11:37:33.027Z,102305.34
2023-02-19T11:40:40.909Z,102298.44
2023-02-19T11:43:54.541Z,102297.97
2023-02-19T11:47:14.651Z,102292.56
2023-02-19T11:50:27.233Z,102288.72
2023-02-19T11:53:31.799Z,102289.34
2023-02-19T11:56:36.893Z,102296.53
2023-02-19T11:59:48.214Z,102284.91
2023-02-19T12:03:11.250Z,102285.69
2023-02-19T12:06:18.028Z,102284.69
2023-02-19T12:09:23.901Z,102295.47
2023-02-19T12:12:33.184Z,102292.69
2023-02-19T12:19:13.080Z,102298.28
2023-02-19T12:22:28.676Z,102309.31
2023-02-19T12:25:54.208Z,102313.34
2023-02-19T12:29:16.753Z,102312.25
2023-02-19T12:32:59.708Z,102319.81
2023-02-19T12:36:25.445Z,102322.63
2023-02-19T12:39:42.944Z,102314.91
2023-02-19T12:43:19.742Z,102309.97
2023-02-19T12:46:29.477Z,102304.13
2023-02-19T12:49:47.201Z,102306.75
2023-02-19T12:52:54.630Z,102304.78
2023-02-19T12:55:58.100Z,102303.97
2023-02-19T12:59:26.853Z,102291.09
2023-02-19T13:02:35.539Z,102298.03
2023-02-19T13:05:52.055Z,102299.03
2023-02-19T13:09:27.911Z,102296.50
2023-02-19T13:12:34.836Z,102285.28
2023-02-19T13:15:42.289Z,102285.44
2023-02-19T13:18:51.229Z,102288.88
2023-02-19T13:22:04.928Z,102289.81
2023-02-19T13:25:08.935Z,102289.69
2023-02-19T13:28:27.284Z,102294.72
2023-02-19T13:32:06.479Z,102305.38
2023-02-19T13:35:39.312Z,102302.25
2023-02-19T13:38:46.821Z,102289.56
2023-02-19T13:41:53.328Z,102276.75
2023-02-19T13:44:57.935Z,102277.56
2023-02-19T13:48:13.636Z,102285.91
2023-02-19T13:51:17.747Z,102294.34
2023-02-19T13:54:32.685Z,102302.09
2023-02-19T13:57:34.131Z,102307.28
2023-02-19T14:00:55.819Z,102310.78
2023-02-19T14:04:20.086Z,102322.09
2023-02-19T14:07:35.045Z,102320.53
2023-02-19T14:10:55.165Z,102320.72
2023-02-19T14:13:57.790Z,102322.50
2023-02-19T14:17:22.153Z,102312.19
2023-02-19T14:20:44.040Z,102314.00
2023-02-19T14:23:52.703Z,102297.69
2023-02-19T14:26:57.034Z,102298.56
2023-02-19T14:29:58.941Z,102305.44
2023-02-19T14:33:10.628Z,102298.69
2023-02-19T14:36:37.226Z,102298.03
2023-02-19T14:39:38.844Z,102297.31
2023-02-19T14:42:41.399Z,102287.91
2023-02-19T14:45:47.549Z,102275.97
2023-02-19T14:48:50.237Z,102277.66
2023-02-19T14:51:56.675Z,102275.81
2023-02-19T14:55:20.249Z,102266.34
2023-02-19T14:58:28.393Z,102273.88
2023-02-19T15:01:29.778Z,102275.38
2023-02-19T15:04:37.226Z,102278.75
2023-02-19T15:07:38.837Z,102278.78
2023-02-19T15:10:42.881Z,102277.94
2023-02-19T15:13:50.839Z,102274.44
2023-02-19T15:16:58.596Z,102282.09
2023-02-19T15:20:04.865Z,102283.72
2023-02-19T15:23:07.620Z,102288.78
2023-02-19T15:26:22.190Z,102270.75
2023-02-19T15:29:25.930Z,102265.78
2023-02-19T15:32:27.860Z,102270.38
2023-02-19T15:35:30.704Z,102274.81
2023-02-19T15:38:32.451Z,102280.16
2023-02-19T15:41:34.848Z,102284.50
2023-02-19T15:44:42.912Z,102291.41
2023-02-19T15:47:54.987Z,102302.59
2023-02-19T15:51:04.500Z,102304.41
2023-02-19T15:54:18.211Z,102318.22
2023-02-19T15:57:24.199Z,102303.72
2023-02-19T16:00:51.343Z,102318.34
2023-02-19T16:03:53.782Z,102306.41
2023-02-19T16:07:00.424Z,102309.91
2023-02-19T16:10:25.139Z,102313.47
2023-02-19T16:13:29.323Z,102316.91
2023-02-19T16:16:38.299Z,102312.69
2023-02-19T16:19:42.682Z,102311.03
2023-02-19T16:22:44.132Z,102315.38
2023-02-19T16:25:46.831Z,102310.28
2023-02-19T16:28:52.987Z,102319.75
2023-02-19T16:31:57.899Z,102315.50
2023-02-19T16:34:59.418Z,102329.22
2023-02-19T16:38:00.846Z,102321.59
2023-02-19T16:41:12.247Z,102326.75
2023-02-19T16:44:26.035Z,102331.09
2023-02-19T16:47:37.020Z,102339.78
2023-02-19T16:50:40.007Z,102328.63
2023-02-19T16:53:41.424Z,102340.63
2023-02-19T16:56:42.872Z,102338.09
2023-02-19T16:59:44.316Z,102341.50
2023-02-19T17:02:47.917Z,102331.25
2023-02-19T17:05:49.974Z,102343.19
2023-02-19T17:08:51.356Z,102334.63
2023-02-19T17:11:52.902Z,102333.75
2023-02-19T17:14:54.273Z,102338.03
2023-02-19T17:17:55.691Z,102332.91
2023-02-19T17:21:10.619Z,102326.94
2023-02-19T17:24:12.878Z,102324.38
2023-02-19T17:27:14.566Z,102329.53
2023-02-19T17:30:26.768Z,102329.50
2023-02-19T17:33:28.231Z,102332.94
2023-02-19T17:36:31.638Z,102333.81
2023-02-19T17:39:32.988Z,102340.78
2023-02-19T17:42:34.369Z,102339.88
2023-02-19T17:45:35.866Z,102342.47
2023-02-19T17:48:37.301Z,102343.34
2023-02-19T17:51:38.938Z,102355.25
2023-02-19T17:54:40.383Z,102358.66
2023-02-19T17:57:41.820Z,102362.06
2023-02-19T18:00:43.249Z,102368.06
2023-02-19T18:03:44.746Z,102374.88
2023-02-19T18:06:46.241Z,102374.91
2023-02-19T18:09:47.699Z,102367.22
2023-02-19T18:12:49.649Z,102364.69
2023-02-19T18:15:51.082Z,102368.13
2023-02-19T18:18:52.491Z,102376.66
2023-02-19T18:21:53.977Z,102376.69
2023-02-19T18:24:55.491Z,102373.25
2023-02-19T18:27:59.384Z,102374.13
2023-02-19T18:31:01.157Z,102369.00
2023-02-19T18:34:03.376Z,102373.25
2023-02-19T18:37:04.877Z,102358.75
2023-02-19T18:40:07.208Z,102355.34
2023-02-19T18:43:08.627Z,102357.06
2023-02-19T18:46:11.286Z,102348.53
2023-02-19T18:49:12.817Z,102346.81
2023-02-19T18:52:14.871Z,102336.56
2023-02-19T18:55:16.429Z,102344.25
2023-02-19T18:58:17.954Z,102349.34
2023-02-19T19:01:19.490Z,102341.69
2023-02-19T19:04:21.273Z,102338.28
2023-02-19T19:07:22.772Z,102334.03
2023-02-19T19:10:24.258Z,102344.28
2023-02-19T19:13:25.664Z,102337.50
2023-02-19T19:16:28.986Z,102333.25
2023-02-19T19:19:30.398Z,102346.91
2023-02-19T19:22:31.806Z,102335.00
2023-02-19T19:25:33.277Z,102334.16
2023-02-19T19:28:34.760Z,102335.84
2023-02-19T19:31:36.665Z,102334.19
2023-02-19T19:34:38.188Z,102319.69
2023-02-19T19:37:39.603Z,102321.41
2023-02-19T19:40:41.052Z,102315.44
2023-02-19T19:43:42.492Z,102318.88
2023-02-19T19:46:45.006Z,102324.84
2023-02-19T19:49:46.805Z,102329.09
2023-02-19T19:52:48.204Z,102322.28
2023-02-19T19:55:49.728Z,102324.03
2023-02-19T19:58:51.173Z,102326.56
2023-02-19T20:01:55.657Z,102330.84
2023-02-19T20:04:57.422Z,102335.94
2023-02-19T20:07:58.942Z,102326.56
2023-02-19T20:11:00.356Z,102330.00
2023-02-19T20:14:01.784Z,102322.31
2023-02-19T20:17:03.254Z,102308.69
2023-02-19T20:20:05.716Z,102312.94
2023-02-19T20:23:07.206Z,102314.66
2023-02-19T20:26:08.643Z,102304.44
2023-02-19T20:29:10.253Z,102312.94
2023-02-19T20:32:13.037Z,102309.53
2023-02-19T20:35:16.076Z,102312.09
2023-02-19T20:38:18.014Z,102302.72
2023-02-19T20:41:19.589Z,102302.72
2023-02-19T20:44:21.037Z,102297.59
2023-02-19T20:47:22.620Z,102295.06
2023-02-19T20:50:24.038Z,102295.91
2023-02-19T20:53:27.096Z,102301.88
2023-02-19T20:56:28.465Z,102307.84
2023-02-19T20:59:32.321Z,102302.72
2023-02-19T21:02:34.167Z,102301.03
2023-02-19T21:05:35.600Z,102295.06
2023-02-19T21:08:37.070Z,102296.75
2023-02-19T21:11:38.474Z,102284.78
2023-02-19T21:14:40.302Z,102287.34
2023-02-19T21:17:45.134Z,102289.06
2023-02-19T21:20:46.539Z,102293.31
2023-02-19T21:23:47.940Z,102300.13
2023-02-19T21:26:49.375Z,102283.06
2023-02-19T21:29:50.921Z,102292.44
2023-02-19T21:32:52.310Z,102278.78
2023-02-19T21:35:53.745Z,102281.34
2023-02-19T21:38:55.122Z,102275.38
2023-02-19T21:41:56.588Z,102276.22
2023-02-19T21:44:57.981Z,102268.56
2023-02-19T21:47:59.360Z,102243.03
2023-02-19T21:51:00.728Z,102261.81
2023-02-19T21:54:02.759Z,102249.88
2023-02-19T21:57:04.260Z,102248.16
2023-02-19T22:00:06.917Z,102246.44
2023-02-19T22:03:15.089Z,102254.13
2023-02-19T22:06:17.306Z,102252.44
2023-02-19T22:09:20.029Z,102236.25
2023-02-19T22:12:21.511Z,102235.38
2023-02-19T22:15:22.892Z,102244.75
2023-02-19T22:18:24.317Z,102247.31
2023-02-19T22:21:29.015Z,102254.13
2023-02-19T22:24:30.420Z,102247.31
2023-02-19T22:27:31.810Z,102249.00
2023-02-19T22:30:33.608Z,102251.53
2023-02-19T22:33:35.222Z,102254.94
2023-02-19T22:36:36.621Z,102252.38
2023-02-19T22:39:38.056Z,102252.38
2023-02-19T22:42:39.470Z,102248.09
2023-02-19T22:45:40.942Z,102254.06
2023-02-19T22:48:42.357Z,102253.22
2023-02-19T22:51:49.494Z,102246.38
2023-02-19T22:54:52.409Z,102240.41
2023-02-19T22:57:53.814Z,102242.94
2023-02-19T23:00:55.222Z,102240.38
2023-02-19T23:03:58.913Z,102238.69
2023-02-19T23:07:00.269Z,102234.47
2023-02-19T23:10:01.732Z,102225.06
2023-02-19T23:13:03.160Z,102217.38
2023-02-19T23:16:04.726Z,102217.34
2023-02-19T23:19:07.937Z,102211.38
2023-02-19T23:22:09.393Z,102209.69
2023-02-19T23:25:10.806Z,102201.13
2023-02-19T23:28:12.233Z,102195.19
2023-02-19T23:31:14.743Z,102199.44
2023-02-19T23:34:17.148Z,102186.66
2023-02-19T23:37:18.539Z,102170.44
2023-02-19T23:40:19.925Z,102173.84
2023-02-19T23:43:21.428Z,102167.00
2023-02-19T23:46:22.881Z,102165.34
2023-02-19T23:49:24.293Z,102142.31
2023-02-19T23:52:25.686Z,102143.97
2023-02-19T23:55:27.192Z,102141.44
2023-02-19T23:58:28.570Z,102126.09
